createdAt,value
2017-05-21T00:00:37.723Z,93.36
2017-05-21T00:01:39.148Z,93.07
2017-05-21T00:02:40.723Z,93.07
2017-05-21T00:03:42.844Z,93.65
2017-05-21T00:04:44.190Z,93.93
2017-05-21T00:05:45.557Z,93.26
2017-05-21T00:06:46.925Z,93.55
2017-05-21T00:07:48.322Z,93.65
2017-05-21T00:08:49.699Z,92.97
2017-05-21T00:09:51.062Z,93.45
2017-05-21T00:10:52.451Z,93.36
2017-05-21T00:11:53.825Z,93.45
2017-05-21T00:12:55.296Z,93.26
2017-05-21T00:13:56.653Z,93.16
2017-05-21T00:14:58.011Z,93.65
2017-05-21T00:15:59.391Z,93.74
2017-05-21T00:17:00.761Z,94.51
2017-05-21T00:18:02.119Z,94.31
2017-05-21T00:19:03.501Z,95.75
2017-05-21T00:20:04.952Z,95.84
2017-05-21T00:21:06.477Z,95.75
2017-05-21T00:22:07.835Z,95.17
2017-05-21T00:23:09.199Z,95.27
2017-05-21T00:24:10.586Z,96.22
2017-05-21T00:25:11.951Z,95.84
2017-05-21T00:26:13.342Z,95.36
2017-05-21T00:27:14.741Z,95.07
2017-05-21T00:28:16.200Z,95.22
2017-05-21T00:29:17.605Z,96.27
2017-05-21T00:30:18.960Z,96.66
2017-05-21T00:31:20.339Z,97.42
2017-05-21T00:32:21.649Z,97.85
2017-05-21T00:33:23.027Z,96.89
2017-05-21T00:34:25.216Z,95.94
2017-05-21T00:35:26.576Z,96.32
2017-05-21T00:36:27.974Z,95.75
2017-05-21T00:37:29.349Z,95.07
2017-05-21T00:38:30.717Z,95.07
2017-05-21T00:39:32.084Z,96.03
2017-05-21T00:40:33.509Z,94.98
2017-05-21T00:41:34.867Z,94.65
2017-05-21T00:42:36.234Z,94.51
2017-05-21T00:43:37.590Z,94.27
2017-05-21T00:44:38.964Z,94.31
2017-05-21T00:45:42.280Z,94.70
2017-05-21T00:46:45.357Z,94.60
2017-05-21T00:47:46.718Z,94.22
2017-05-21T00:48:48.085Z,94.60
2017-05-21T00:49:49.451Z,94.60
2017-05-21T00:50:50.822Z,94.22
2017-05-21T00:51:52.179Z,94.22
2017-05-21T00:52:54.314Z,94.31
2017-05-21T00:53:55.675Z,94.31
2017-05-21T00:54:57.817Z,93.84
2017-05-21T00:55:59.223Z,94.02
2017-05-21T00:57:00.581Z,94.12
2017-05-21T00:58:01.940Z,94.41
2017-05-21T00:59:03.321Z,93.84
2017-05-21T01:00:04.688Z,93.55
2017-05-21T01:01:06.053Z,93.74
2017-05-21T01:02:07.417Z,94.12
2017-05-21T01:03:08.798Z,93.84
2017-05-21T01:04:10.179Z,94.41
2017-05-21T01:05:11.600Z,94.51
2017-05-21T01:06:12.995Z,94.31
2017-05-21T01:07:15.288Z,94.22
2017-05-21T01:08:18.289Z,94.70
2017-05-21T01:09:19.682Z,94.02
2017-05-21T01:10:21.048Z,94.51
2017-05-21T01:11:22.417Z,94.60
2017-05-21T01:12:23.802Z,94.79
2017-05-21T01:13:25.175Z,94.79
2017-05-21T01:14:26.535Z,94.70
2017-05-21T01:15:27.909Z,94.51
2017-05-21T01:16:29.287Z,94.70
2017-05-21T01:17:30.678Z,94.60
2017-05-21T01:18:32.056Z,94.31
2017-05-21T01:19:33.474Z,94.51
2017-05-21T01:20:34.848Z,94.89
2017-05-21T01:21:36.227Z,95.03
2017-05-21T01:22:37.586Z,94.74
2017-05-21T01:23:39.020Z,94.74
2017-05-21T01:24:40.400Z,95.22
2017-05-21T01:25:41.771Z,95.79
2017-05-21T01:26:43.169Z,95.12
2017-05-21T01:27:44.533Z,95.70
2017-05-21T01:28:45.999Z,95.51
2017-05-21T01:29:48.325Z,95.61
2017-05-21T01:30:49.763Z,95.41
2017-05-21T01:31:51.140Z,95.70
2017-05-21T01:32:52.502Z,95.61
2017-05-21T01:33:53.866Z,95.32
2017-05-21T01:34:55.224Z,95.70
2017-05-21T01:35:56.590Z,95.61
2017-05-21T01:37:00.791Z,95.89
2017-05-21T01:38:02.170Z,95.70
2017-05-21T01:39:03.544Z,95.70
2017-05-21T01:40:04.950Z,95.89
2017-05-21T01:41:06.309Z,97.80
2017-05-21T01:42:07.733Z,99.43
2017-05-21T01:43:09.822Z,99.43
2017-05-21T01:44:11.211Z,99.99
2017-05-21T01:45:13.418Z,99.99
2017-05-21T01:46:14.780Z,99.99
2017-05-21T01:47:16.307Z,99.99
2017-05-21T01:48:17.631Z,99.99
2017-05-21T01:49:18.998Z,99.99
2017-05-21T01:50:20.428Z,99.99
2017-05-21T01:51:21.989Z,99.99
2017-05-21T01:52:23.486Z,99.99
2017-05-21T01:53:24.873Z,99.43
2017-05-21T01:54:26.242Z,99.99
2017-05-21T01:55:27.711Z,99.62
2017-05-21T01:56:29.080Z,99.43
2017-05-21T01:57:30.446Z,98.75
2017-05-21T01:58:31.831Z,99.04
2017-05-21T01:59:33.804Z,98.08
2017-05-21T02:00:35.301Z,98.66
2017-05-21T02:01:36.680Z,98.66
2017-05-21T02:02:38.183Z,98.85
2017-05-21T02:03:40.454Z,98.37
2017-05-21T02:04:41.858Z,98.28
2017-05-21T02:05:43.306Z,98.08
2017-05-21T02:06:44.712Z,98.47
2017-05-21T02:07:46.089Z,97.80
2017-05-21T02:08:47.438Z,97.32
2017-05-21T02:09:48.798Z,97.23
2017-05-21T02:10:50.155Z,97.32
2017-05-21T02:11:51.529Z,96.66
2017-05-21T02:12:52.921Z,96.75
2017-05-21T02:13:54.403Z,96.27
2017-05-21T02:14:55.763Z,96.27
2017-05-21T02:15:57.205Z,96.75
2017-05-21T02:16:58.537Z,96.84
2017-05-21T02:17:59.934Z,96.27
2017-05-21T02:19:01.292Z,95.98
2017-05-21T02:20:02.675Z,96.27
2017-05-21T02:21:04.093Z,95.51
2017-05-21T02:22:05.449Z,95.70
2017-05-21T02:23:06.809Z,95.51
2017-05-21T02:24:08.194Z,95.51
2017-05-21T02:25:09.569Z,94.84
2017-05-21T02:26:10.935Z,94.93
2017-05-21T02:27:12.333Z,95.61
2017-05-21T02:28:13.698Z,95.70
2017-05-21T02:29:15.077Z,95.70
2017-05-21T02:30:16.475Z,94.65
2017-05-21T02:31:18.382Z,95.32
2017-05-21T02:32:19.734Z,95.79
2017-05-21T02:33:21.783Z,94.93
2017-05-21T02:34:23.199Z,95.03
2017-05-21T02:35:24.506Z,94.74
2017-05-21T02:36:25.871Z,94.84
2017-05-21T02:37:29.780Z,94.84
2017-05-21T02:38:31.148Z,94.93
2017-05-21T02:39:32.543Z,95.17
2017-05-21T02:40:33.922Z,95.12
2017-05-21T02:41:35.317Z,94.51
2017-05-21T02:42:36.709Z,94.51
2017-05-21T02:43:38.088Z,94.51
2017-05-21T02:44:39.452Z,94.79
2017-05-21T02:45:40.807Z,94.60
2017-05-21T02:46:42.177Z,94.79
2017-05-21T02:47:43.549Z,94.12
2017-05-21T02:48:44.910Z,93.45
2017-05-21T02:49:46.284Z,93.79
2017-05-21T02:50:47.712Z,94.07
2017-05-21T02:51:49.108Z,95.89
2017-05-21T02:52:50.461Z,95.89
2017-05-21T02:53:51.854Z,96.66
2017-05-21T02:54:53.353Z,96.08
2017-05-21T02:55:54.762Z,95.61
2017-05-21T02:56:56.126Z,95.12
2017-05-21T02:57:57.598Z,95.79
2017-05-21T02:58:59.216Z,95.70
2017-05-21T03:00:00.561Z,95.03
2017-05-21T03:01:01.983Z,95.61
2017-05-21T03:02:03.439Z,95.51
2017-05-21T03:03:04.820Z,95.70
2017-05-21T03:04:06.180Z,95.70
2017-05-21T03:05:07.607Z,96.27
2017-05-21T03:06:08.975Z,95.89
2017-05-21T03:07:10.344Z,95.41
2017-05-21T03:08:12.614Z,95.51
2017-05-21T03:09:13.989Z,96.17
2017-05-21T03:10:15.358Z,96.27
2017-05-21T03:11:16.764Z,96.37
2017-05-21T03:12:18.831Z,96.75
2017-05-21T03:13:20.204Z,97.13
2017-05-21T03:14:22.500Z,95.98
2017-05-21T03:15:23.923Z,96.08
2017-05-21T03:16:25.572Z,96.17
2017-05-21T03:17:27.104Z,96.27
2017-05-21T03:18:28.475Z,95.79
2017-05-21T03:19:29.841Z,96.08
2017-05-21T03:20:33.775Z,95.70
2017-05-21T03:21:35.145Z,96.17
2017-05-21T03:22:36.515Z,96.27
2017-05-21T03:23:37.915Z,96.17
2017-05-21T03:24:39.314Z,96.17
2017-05-21T03:25:40.715Z,96.08
2017-05-21T03:26:42.116Z,96.27
2017-05-21T03:27:43.612Z,96.84
2017-05-21T03:28:44.981Z,96.66
2017-05-21T03:29:46.905Z,96.37
2017-05-21T03:30:48.263Z,96.37
2017-05-21T03:31:49.628Z,96.46
2017-05-21T03:32:50.989Z,96.17
2017-05-21T03:33:52.353Z,96.37
2017-05-21T03:34:53.748Z,95.98
2017-05-21T03:35:55.118Z,96.27
2017-05-21T03:36:56.473Z,96.66
2017-05-21T03:37:57.852Z,96.08
2017-05-21T03:38:59.218Z,95.98
2017-05-21T03:40:00.599Z,95.98
2017-05-21T03:41:01.966Z,95.89
2017-05-21T03:42:03.418Z,95.70
2017-05-21T03:43:04.803Z,95.89
2017-05-21T03:44:06.151Z,95.79
2017-05-21T03:45:07.604Z,95.79
2017-05-21T03:46:08.968Z,95.61
2017-05-21T03:47:10.415Z,95.70
2017-05-21T03:48:11.856Z,95.89
2017-05-21T03:49:13.254Z,95.79
2017-05-21T03:50:14.719Z,95.89
2017-05-21T03:51:16.134Z,96.42
2017-05-21T03:52:17.501Z,96.03
2017-05-21T03:53:18.869Z,95.70
2017-05-21T03:54:20.232Z,95.75
2017-05-21T03:55:22.306Z,95.75
2017-05-21T03:56:23.688Z,96.08
2017-05-21T03:57:25.087Z,95.36
2017-05-21T03:58:26.464Z,95.36
2017-05-21T03:59:27.851Z,94.98
2017-05-21T04:00:29.211Z,95.46
2017-05-21T04:01:30.662Z,95.75
2017-05-21T04:02:32.044Z,95.56
2017-05-21T04:03:33.458Z,95.70
2017-05-21T04:04:34.840Z,95.46
2017-05-21T04:05:36.228Z,95.12
2017-05-21T04:06:37.598Z,95.75
2017-05-21T04:07:38.985Z,95.84
2017-05-21T04:08:40.350Z,94.79
2017-05-21T04:09:41.749Z,95.70
2017-05-21T04:10:43.154Z,95.51
2017-05-21T04:11:44.539Z,95.27
2017-05-21T04:12:45.907Z,95.70
2017-05-21T04:13:47.275Z,95.94
2017-05-21T04:14:48.642Z,95.65
2017-05-21T04:15:52.785Z,95.75
2017-05-21T04:16:55.854Z,94.89
2017-05-21T04:17:57.225Z,94.51
2017-05-21T04:18:58.585Z,94.70
2017-05-21T04:19:59.950Z,95.17
2017-05-21T04:21:01.330Z,94.51
2017-05-21T04:22:02.707Z,94.89
2017-05-21T04:23:04.076Z,94.89
2017-05-21T04:24:05.440Z,94.70
2017-05-21T04:25:06.839Z,94.79
2017-05-21T04:26:08.284Z,94.98
2017-05-21T04:27:09.651Z,95.07
2017-05-21T04:28:11.046Z,94.98
2017-05-21T04:29:12.419Z,94.79
2017-05-21T04:30:13.783Z,95.17
2017-05-21T04:31:15.163Z,94.89
2017-05-21T04:32:16.518Z,94.70
2017-05-21T04:33:17.882Z,95.27
2017-05-21T04:34:19.246Z,95.27
2017-05-21T04:35:20.623Z,94.98
2017-05-21T04:36:21.985Z,94.79
2017-05-21T04:37:23.355Z,94.89
2017-05-21T04:38:24.725Z,94.89
2017-05-21T04:39:26.037Z,95.17
2017-05-21T04:40:27.407Z,95.17
2017-05-21T04:41:28.785Z,94.98
2017-05-21T04:42:30.150Z,94.70
2017-05-21T04:43:31.523Z,95.07
2017-05-21T04:44:32.895Z,94.12
2017-05-21T04:45:34.258Z,94.89
2017-05-21T04:46:35.625Z,94.70
2017-05-21T04:47:36.985Z,94.51
2017-05-21T04:48:38.361Z,94.41
2017-05-21T04:49:39.725Z,94.22
2017-05-21T04:50:41.099Z,94.79
2017-05-21T04:51:42.469Z,94.55
2017-05-21T04:52:43.830Z,94.12
2017-05-21T04:53:45.225Z,94.55
2017-05-21T04:54:46.585Z,94.31
2017-05-21T04:55:47.954Z,94.46
2017-05-21T04:56:49.316Z,93.98
2017-05-21T04:57:50.681Z,94.41
2017-05-21T04:58:52.043Z,94.12
2017-05-21T04:59:53.520Z,94.41
2017-05-21T05:00:54.836Z,94.27
2017-05-21T05:01:56.226Z,94.84
2017-05-21T05:02:57.594Z,94.60
2017-05-21T05:03:58.956Z,94.60
2017-05-21T05:05:00.326Z,94.55
2017-05-21T05:06:01.694Z,94.41
2017-05-21T05:07:03.059Z,94.36
2017-05-21T05:08:04.425Z,94.46
2017-05-21T05:09:05.795Z,94.31
2017-05-21T05:10:07.176Z,94.41
2017-05-21T05:11:08.548Z,93.93
2017-05-21T05:12:09.955Z,94.27
2017-05-21T05:13:11.333Z,94.51
2017-05-21T05:14:12.791Z,94.70
2017-05-21T05:15:14.163Z,94.31
2017-05-21T05:16:15.548Z,94.70
2017-05-21T05:17:16.966Z,94.51
2017-05-21T05:18:18.341Z,94.02
2017-05-21T05:19:19.700Z,94.51
2017-05-21T05:20:21.070Z,94.51
2017-05-21T05:21:22.480Z,94.70
2017-05-21T05:22:23.862Z,94.60
2017-05-21T05:23:25.214Z,94.31
2017-05-21T05:24:26.587Z,93.93
2017-05-21T05:25:27.955Z,94.41
2017-05-21T05:26:29.366Z,94.22
2017-05-21T05:27:30.711Z,94.41
2017-05-21T05:28:32.163Z,94.60
2017-05-21T05:29:33.531Z,94.07
2017-05-21T05:30:34.912Z,94.55
2017-05-21T05:31:36.274Z,93.93
2017-05-21T05:32:37.639Z,94.12
2017-05-21T05:33:39.059Z,94.31
2017-05-21T05:34:40.428Z,94.31
2017-05-21T05:35:41.794Z,95.17
2017-05-21T05:36:43.158Z,94.31
2017-05-21T05:37:44.527Z,94.70
2017-05-21T05:38:46.015Z,94.70
2017-05-21T05:39:47.380Z,94.98
2017-05-21T05:40:48.754Z,94.60
2017-05-21T05:41:50.121Z,94.02
2017-05-21T05:42:51.484Z,94.02
2017-05-21T05:43:52.854Z,94.12
2017-05-21T05:44:54.224Z,94.12
2017-05-21T05:45:55.596Z,94.31
2017-05-21T05:46:56.960Z,94.41
2017-05-21T05:47:58.327Z,93.93
2017-05-21T05:48:59.702Z,93.45
2017-05-21T05:50:01.071Z,93.65
2017-05-21T05:51:02.471Z,93.74
2017-05-21T05:52:04.505Z,93.93
2017-05-21T05:53:05.872Z,93.65
2017-05-21T05:54:07.237Z,93.65
2017-05-21T05:55:08.604Z,93.65
2017-05-21T05:56:09.974Z,93.84
2017-05-21T05:57:11.354Z,93.55
2017-05-21T05:58:12.717Z,93.36
2017-05-21T05:59:14.079Z,93.16
2017-05-21T06:00:15.445Z,93.36
2017-05-21T06:01:16.832Z,93.55
2017-05-21T06:02:18.331Z,93.65
2017-05-21T06:03:19.651Z,93.07
2017-05-21T06:04:21.025Z,92.59
2017-05-21T06:05:22.393Z,92.69
2017-05-21T06:06:23.798Z,92.69
2017-05-21T06:07:25.156Z,92.59
2017-05-21T06:08:26.552Z,92.50
2017-05-21T06:09:27.925Z,92.50
2017-05-21T06:10:29.321Z,92.69
2017-05-21T06:11:30.698Z,92.50
2017-05-21T06:12:32.065Z,92.97
2017-05-21T06:13:33.446Z,92.69
2017-05-21T06:14:34.829Z,92.69
2017-05-21T06:15:36.190Z,92.59
2017-05-21T06:16:37.566Z,92.69
2017-05-21T06:17:38.940Z,92.11
2017-05-21T06:18:40.360Z,92.11
2017-05-21T06:19:41.673Z,92.11
2017-05-21T06:20:43.090Z,92.02
2017-05-21T06:21:44.460Z,91.35
2017-05-21T06:22:45.827Z,91.54
2017-05-21T06:23:47.187Z,91.35
2017-05-21T06:24:48.560Z,91.16
2017-05-21T06:25:49.943Z,91.16
2017-05-21T06:26:51.337Z,91.54
2017-05-21T06:27:52.704Z,90.92
2017-05-21T06:28:54.071Z,91.02
2017-05-21T06:29:55.438Z,91.11
2017-05-21T06:30:56.805Z,90.82
2017-05-21T06:31:58.179Z,90.82
2017-05-21T06:32:59.553Z,90.16
2017-05-21T06:34:00.913Z,89.87
2017-05-21T06:35:02.291Z,89.48
2017-05-21T06:36:03.696Z,89.48
2017-05-21T06:37:05.063Z,88.91
2017-05-21T06:38:06.430Z,89.01
2017-05-21T06:39:07.803Z,88.72
2017-05-21T06:40:09.186Z,88.53
2017-05-21T06:41:10.544Z,88.53
2017-05-21T06:42:11.907Z,88.62
2017-05-21T06:43:13.280Z,88.72
2017-05-21T06:44:14.651Z,88.62
2017-05-21T06:45:16.019Z,88.43
2017-05-21T06:46:17.389Z,88.15
2017-05-21T06:47:18.766Z,88.24
2017-05-21T06:48:20.131Z,87.95
2017-05-21T06:49:21.504Z,87.95
2017-05-21T06:50:22.957Z,88.43
2017-05-21T06:51:24.339Z,87.48
2017-05-21T06:52:25.705Z,87.33
2017-05-21T06:53:27.077Z,86.85
2017-05-21T06:54:28.444Z,86.47
2017-05-21T06:55:29.819Z,86.94
2017-05-21T06:56:31.194Z,86.76
2017-05-21T06:57:32.583Z,86.37
2017-05-21T06:58:33.985Z,85.99
2017-05-21T06:59:35.360Z,86.18
2017-05-21T07:00:36.724Z,86.08
2017-05-21T07:01:38.091Z,85.80
2017-05-21T07:02:39.466Z,85.71
2017-05-21T07:03:40.843Z,85.89
2017-05-21T07:04:42.212Z,86.28
2017-05-21T07:05:43.570Z,86.57
2017-05-21T07:06:44.938Z,86.08
2017-05-21T07:07:46.311Z,86.18
2017-05-21T07:08:47.726Z,86.18
2017-05-21T07:09:49.119Z,85.22
2017-05-21T07:10:50.516Z,84.55
2017-05-21T07:11:51.889Z,84.75
2017-05-21T07:12:53.279Z,84.46
2017-05-21T07:13:54.652Z,85.32
2017-05-21T07:14:56.036Z,84.79
2017-05-21T07:15:57.414Z,84.02
2017-05-21T07:16:58.790Z,84.12
2017-05-21T07:18:00.935Z,84.22
2017-05-21T07:19:03.292Z,84.41
2017-05-21T07:20:04.657Z,84.31
2017-05-21T07:21:06.044Z,83.54
2017-05-21T07:22:07.415Z,83.83
2017-05-21T07:23:08.785Z,83.64
2017-05-21T07:24:10.157Z,83.54
2017-05-21T07:25:11.518Z,83.45
2017-05-21T07:26:12.880Z,83.40
2017-05-21T07:27:14.253Z,84.02
2017-05-21T07:28:15.623Z,83.45
2017-05-21T07:29:16.990Z,83.73
2017-05-21T07:30:18.359Z,83.64
2017-05-21T07:31:19.736Z,83.36
2017-05-21T07:32:21.103Z,83.36
2017-05-21T07:33:22.462Z,83.16
2017-05-21T07:34:23.849Z,83.64
2017-05-21T07:35:25.291Z,83.36
2017-05-21T07:36:26.671Z,83.64
2017-05-21T07:37:28.143Z,82.87
2017-05-21T07:38:29.509Z,83.06
2017-05-21T07:39:30.876Z,82.49
2017-05-21T07:40:32.282Z,81.92
2017-05-21T07:41:33.650Z,82.01
2017-05-21T07:42:35.027Z,81.82
2017-05-21T07:43:36.400Z,82.30
2017-05-21T07:44:37.778Z,81.63
2017-05-21T07:45:39.144Z,81.82
2017-05-21T07:46:40.515Z,81.63
2017-05-21T07:47:41.880Z,81.05
2017-05-21T07:48:43.249Z,81.57
2017-05-21T07:49:44.618Z,81.73
2017-05-21T07:50:46.049Z,81.48
2017-05-21T07:51:47.424Z,81.10
2017-05-21T07:52:48.809Z,80.81
2017-05-21T07:53:50.170Z,81.20
2017-05-21T07:54:51.551Z,81.77
2017-05-21T07:55:52.948Z,80.90
2017-05-21T07:56:54.384Z,80.71
2017-05-21T07:57:55.755Z,80.33
2017-05-21T07:58:57.128Z,80.52
2017-05-21T07:59:59.294Z,80.24
2017-05-21T08:01:00.684Z,80.08
2017-05-21T08:02:02.084Z,79.85
2017-05-21T08:03:03.472Z,79.89
2017-05-21T08:04:04.863Z,79.08
2017-05-21T08:05:06.232Z,78.89
2017-05-21T08:06:07.627Z,79.89
2017-05-21T08:07:09.036Z,79.22
2017-05-21T08:08:10.383Z,78.36
2017-05-21T08:09:11.785Z,78.45
2017-05-21T08:10:13.159Z,78.36
2017-05-21T08:11:14.533Z,78.07
2017-05-21T08:12:15.896Z,78.11
2017-05-21T08:13:17.294Z,77.73
2017-05-21T08:14:18.672Z,76.96
2017-05-21T08:15:20.041Z,77.53
2017-05-21T08:16:21.413Z,77.69
2017-05-21T08:17:22.800Z,78.17
2017-05-21T08:18:24.171Z,77.97
2017-05-21T08:19:25.542Z,77.88
2017-05-21T08:20:26.913Z,77.97
2017-05-21T08:21:28.280Z,77.92
2017-05-21T08:22:29.650Z,77.69
2017-05-21T08:23:31.795Z,78.07
2017-05-21T08:24:33.276Z,77.92
2017-05-21T08:25:34.618Z,77.25
2017-05-21T08:26:35.989Z,76.86
2017-05-21T08:27:37.360Z,77.15
2017-05-21T08:28:38.735Z,76.86
2017-05-21T08:29:40.097Z,77.21
2017-05-21T08:30:41.713Z,76.67
2017-05-21T08:31:43.079Z,76.19
2017-05-21T08:32:44.457Z,76.00
2017-05-21T08:33:45.854Z,75.43
2017-05-21T08:34:47.388Z,75.62
2017-05-21T08:35:48.757Z,75.33
2017-05-21T08:36:50.147Z,74.89
2017-05-21T08:37:51.522Z,74.89
2017-05-21T08:38:52.888Z,75.04
2017-05-21T08:39:54.273Z,75.43
2017-05-21T08:40:55.644Z,76.48
2017-05-21T08:41:57.021Z,75.33
2017-05-21T08:42:58.382Z,74.89
2017-05-21T08:43:59.755Z,74.89
2017-05-21T08:45:01.138Z,74.41
2017-05-21T08:46:02.501Z,75.18
2017-05-21T08:47:04.088Z,74.98
2017-05-21T08:48:05.458Z,74.98
2017-05-21T08:49:06.892Z,74.85
2017-05-21T08:50:08.297Z,74.95
2017-05-21T08:51:09.693Z,75.90
2017-05-21T08:52:11.056Z,76.00
2017-05-21T08:53:12.439Z,75.52
2017-05-21T08:54:13.803Z,75.23
2017-05-21T08:55:15.181Z,75.62
2017-05-21T08:56:16.549Z,75.04
2017-05-21T08:57:18.574Z,75.08
2017-05-21T08:58:19.945Z,75.08
2017-05-21T08:59:21.320Z,74.85
2017-05-21T09:00:22.682Z,75.04
2017-05-21T09:01:24.072Z,75.04
2017-05-21T09:02:25.444Z,75.33
2017-05-21T09:03:26.881Z,75.56
2017-05-21T09:04:28.252Z,74.85
2017-05-21T09:05:29.618Z,74.89
2017-05-21T09:06:30.994Z,74.95
2017-05-21T09:07:32.370Z,75.18
2017-05-21T09:08:33.750Z,74.60
2017-05-21T09:09:35.136Z,73.74
2017-05-21T09:10:36.571Z,73.93
2017-05-21T09:11:38.018Z,74.12
2017-05-21T09:12:39.398Z,74.27
2017-05-21T09:13:40.825Z,74.89
2017-05-21T09:14:42.202Z,74.31
2017-05-21T09:15:43.611Z,74.89
2017-05-21T09:16:44.983Z,73.93
2017-05-21T09:17:46.395Z,73.87
2017-05-21T09:18:47.989Z,73.93
2017-05-21T09:19:49.270Z,73.74
2017-05-21T09:20:50.641Z,73.55
2017-05-21T09:21:52.228Z,73.93
2017-05-21T09:22:53.772Z,74.12
2017-05-21T09:23:56.526Z,74.22
2017-05-21T09:24:57.614Z,73.74
2017-05-21T09:25:58.975Z,73.58
2017-05-21T09:27:00.357Z,73.30
2017-05-21T09:28:01.835Z,73.00
2017-05-21T09:29:03.639Z,72.81
2017-05-21T09:30:05.193Z,72.24
2017-05-21T09:31:06.634Z,72.72
2017-05-21T09:32:08.131Z,72.72
2017-05-21T09:33:09.514Z,71.95
2017-05-21T09:34:10.931Z,72.53
2017-05-21T09:35:12.611Z,72.72
2017-05-21T09:36:14.220Z,73.55
2017-05-21T09:37:15.605Z,72.43
2017-05-21T09:38:17.948Z,72.33
2017-05-21T09:39:19.765Z,72.05
2017-05-21T09:40:22.207Z,72.05
2017-05-21T09:41:23.569Z,72.63
2017-05-21T09:42:24.939Z,71.95
2017-05-21T09:43:26.601Z,72.05
2017-05-21T09:44:28.817Z,71.76
2017-05-21T09:45:30.192Z,72.05
2017-05-21T09:46:32.466Z,71.76
2017-05-21T09:47:33.854Z,71.61
2017-05-21T09:48:35.337Z,71.37
2017-05-21T09:49:37.257Z,71.41
2017-05-21T09:50:39.427Z,71.61
2017-05-21T09:51:41.352Z,71.37
2017-05-21T09:52:42.774Z,71.66
2017-05-21T09:53:44.437Z,70.55
2017-05-21T09:54:45.830Z,70.74
2017-05-21T09:55:47.203Z,70.84
2017-05-21T09:56:48.629Z,70.36
2017-05-21T09:57:49.999Z,69.78
2017-05-21T09:58:51.367Z,70.42
2017-05-21T09:59:52.780Z,71.03
2017-05-21T10:00:54.151Z,70.26
2017-05-21T10:01:55.547Z,70.45
2017-05-21T10:02:56.928Z,69.20
2017-05-21T10:03:58.988Z,68.76
2017-05-21T10:05:00.358Z,67.80
2017-05-21T10:06:01.726Z,68.85
2017-05-21T10:07:03.098Z,68.82
2017-05-21T10:08:04.473Z,68.85
2017-05-21T10:09:05.845Z,68.28
2017-05-21T10:10:07.255Z,67.13
2017-05-21T10:11:08.627Z,66.93
2017-05-21T10:12:10.078Z,66.07
2017-05-21T10:13:11.448Z,65.27
2017-05-21T10:14:12.821Z,65.65
2017-05-21T10:15:14.187Z,65.01
2017-05-21T10:16:15.572Z,65.49
2017-05-21T10:17:16.966Z,64.76
2017-05-21T10:18:18.342Z,64.56
2017-05-21T10:19:19.720Z,64.76
2017-05-21T10:20:21.110Z,64.56
2017-05-21T10:21:22.483Z,64.02
2017-05-21T10:22:23.885Z,64.34
2017-05-21T10:23:25.255Z,63.76
2017-05-21T10:24:26.620Z,63.67
2017-05-21T10:25:27.986Z,64.47
2017-05-21T10:26:29.357Z,64.09
2017-05-21T10:27:30.733Z,62.93
2017-05-21T10:28:32.194Z,64.18
2017-05-21T10:29:33.499Z,63.32
2017-05-21T10:30:34.888Z,63.99
2017-05-21T10:31:36.265Z,64.05
2017-05-21T10:32:37.631Z,63.79
2017-05-21T10:33:39.015Z,63.12
2017-05-21T10:34:40.391Z,62.93
2017-05-21T10:35:41.851Z,63.96
2017-05-21T10:36:43.220Z,63.92
2017-05-21T10:37:44.602Z,62.96
2017-05-21T10:38:46.766Z,63.22
2017-05-21T10:39:48.131Z,63.89
2017-05-21T10:40:49.569Z,63.92
2017-05-21T10:41:50.983Z,63.06
2017-05-21T10:42:52.354Z,63.06
2017-05-21T10:43:53.738Z,63.60
2017-05-21T10:44:55.121Z,63.06
2017-05-21T10:45:56.485Z,62.48
2017-05-21T10:46:57.865Z,62.10
2017-05-21T10:47:59.236Z,62.93
2017-05-21T10:49:00.618Z,63.15
2017-05-21T10:50:02.033Z,62.48
2017-05-21T10:51:03.422Z,61.68
2017-05-21T10:52:04.812Z,61.43
2017-05-21T10:53:06.179Z,61.68
2017-05-21T10:54:07.548Z,61.97
2017-05-21T10:55:08.928Z,62.64
2017-05-21T10:56:10.300Z,62.90
2017-05-21T10:57:11.664Z,63.51
2017-05-21T10:58:13.040Z,63.32
2017-05-21T10:59:14.422Z,63.41
2017-05-21T11:00:15.793Z,63.73
2017-05-21T11:01:17.164Z,63.70
2017-05-21T11:02:18.583Z,64.37
2017-05-21T11:03:19.957Z,65.05
2017-05-21T11:04:21.334Z,65.14
2017-05-21T11:05:22.706Z,65.17
2017-05-21T11:06:24.075Z,65.23
2017-05-21T11:07:25.528Z,65.33
2017-05-21T11:08:26.908Z,65.43
2017-05-21T11:09:28.330Z,64.79
2017-05-21T11:10:29.705Z,64.69
2017-05-21T11:11:31.150Z,64.89
2017-05-21T11:12:32.565Z,64.82
2017-05-21T11:13:33.992Z,64.40
2017-05-21T11:14:35.367Z,64.15
2017-05-21T11:15:36.783Z,64.25
2017-05-21T11:16:38.813Z,64.43
2017-05-21T11:17:40.198Z,65.01
2017-05-21T11:18:41.612Z,64.05
2017-05-21T11:19:42.976Z,64.63
2017-05-21T11:20:44.363Z,64.63
2017-05-21T11:21:45.769Z,65.46
2017-05-21T11:22:47.145Z,64.89
2017-05-21T11:23:48.513Z,65.01
2017-05-21T11:24:49.883Z,64.05
2017-05-21T11:25:51.332Z,64.22
2017-05-21T11:26:52.663Z,64.25
2017-05-21T11:27:54.031Z,64.15
2017-05-21T11:28:55.395Z,63.57
2017-05-21T11:29:56.815Z,64.05
2017-05-21T11:30:58.325Z,64.79
2017-05-21T11:31:59.701Z,66.14
2017-05-21T11:33:01.079Z,65.84
2017-05-21T11:34:02.460Z,66.33
2017-05-21T11:35:03.860Z,66.58
2017-05-21T11:36:05.236Z,66.14
2017-05-21T11:37:06.609Z,65.46
2017-05-21T11:38:08.051Z,65.66
2017-05-21T11:39:09.409Z,66.04
2017-05-21T11:40:10.803Z,66.97
2017-05-21T11:41:12.874Z,67.00
2017-05-21T11:42:14.995Z,66.04
2017-05-21T11:43:16.365Z,66.14
2017-05-21T11:44:17.733Z,65.66
2017-05-21T11:45:19.105Z,66.04
2017-05-21T11:46:20.471Z,66.77
2017-05-21T11:47:21.844Z,66.77
2017-05-21T11:48:24.227Z,66.84
2017-05-21T11:49:25.620Z,68.02
2017-05-21T11:50:26.985Z,67.61
2017-05-21T11:51:28.434Z,67.61
2017-05-21T11:52:29.870Z,67.03
2017-05-21T11:53:33.875Z,66.97
2017-05-21T11:54:37.821Z,67.35
2017-05-21T11:55:39.194Z,66.49
2017-05-21T11:56:40.557Z,66.04
2017-05-21T11:57:42.000Z,66.14
2017-05-21T11:58:43.327Z,66.58
2017-05-21T11:59:45.312Z,66.81
2017-05-21T12:00:46.716Z,66.04
2017-05-21T12:01:48.129Z,66.14
2017-05-21T12:02:49.519Z,66.33
2017-05-21T12:03:50.890Z,65.84
2017-05-21T12:04:52.266Z,65.37
2017-05-21T12:05:54.475Z,65.66
2017-05-21T12:06:55.873Z,65.56
2017-05-21T12:07:57.251Z,65.27
2017-05-21T12:08:58.717Z,66.00
2017-05-21T12:10:00.091Z,65.37
2017-05-21T12:11:01.474Z,65.56
2017-05-21T12:12:02.845Z,65.46
2017-05-21T12:13:04.225Z,64.79
2017-05-21T12:14:05.606Z,64.43
2017-05-21T12:15:06.974Z,64.89
2017-05-21T12:16:09.325Z,65.27
2017-05-21T12:17:10.718Z,64.34
2017-05-21T12:18:12.085Z,64.15
2017-05-21T12:19:14.318Z,63.09
2017-05-21T12:20:17.314Z,63.76
2017-05-21T12:21:18.686Z,63.48
2017-05-21T12:22:20.054Z,62.80
2017-05-21T12:23:21.445Z,62.90
2017-05-21T12:24:22.820Z,62.41
2017-05-21T12:25:24.197Z,62.23
2017-05-21T12:26:25.581Z,61.94
2017-05-21T12:27:27.701Z,61.49
2017-05-21T12:28:29.065Z,61.39
2017-05-21T12:29:30.447Z,60.81
2017-05-21T12:30:31.819Z,61.07
2017-05-21T12:31:33.202Z,61.94
2017-05-21T12:32:34.582Z,61.29
2017-05-21T12:33:35.956Z,60.04
2017-05-21T12:34:37.324Z,59.17
2017-05-21T12:35:38.693Z,59.56
2017-05-21T12:36:40.067Z,58.98
2017-05-21T12:37:41.443Z,59.37
2017-05-21T12:38:42.818Z,59.92
2017-05-21T12:39:44.187Z,60.04
2017-05-21T12:40:45.557Z,59.27
2017-05-21T12:41:46.930Z,58.60
2017-05-21T12:42:48.307Z,58.89
2017-05-21T12:43:49.670Z,59.08
2017-05-21T12:44:51.047Z,58.79
2017-05-21T12:45:52.424Z,58.34
2017-05-21T12:46:53.795Z,58.22
2017-05-21T12:47:55.826Z,58.31
2017-05-21T12:48:57.197Z,58.57
2017-05-21T12:49:58.582Z,58.02
2017-05-21T12:50:59.962Z,58.22
2017-05-21T12:52:02.276Z,58.22
2017-05-21T12:53:03.715Z,58.40
2017-05-21T12:54:05.119Z,57.64
2017-05-21T12:55:06.495Z,57.45
2017-05-21T12:56:07.864Z,57.54
2017-05-21T12:57:09.238Z,57.73
2017-05-21T12:58:10.609Z,57.70
2017-05-21T12:59:11.982Z,57.80
2017-05-21T13:00:13.376Z,58.47
2017-05-21T13:01:15.488Z,57.99
2017-05-21T13:02:16.847Z,57.99
2017-05-21T13:03:18.238Z,58.28
2017-05-21T13:04:19.613Z,57.64
2017-05-21T13:05:21.074Z,57.54
2017-05-21T13:06:22.447Z,57.06
2017-05-21T13:07:24.348Z,57.60
2017-05-21T13:08:25.771Z,57.60
2017-05-21T13:09:27.196Z,57.42
2017-05-21T13:10:28.597Z,57.70
2017-05-21T13:11:29.953Z,56.93